Time;durP1;ratioP1;P1;durP2;ratioP2;P2;SDS_P1;SDS_P2;PMS_P1;PMS_P2;Temp;Humidity;BMP_temperature;BMP_pressure;BME280_temperature;BME280_humidity;BME280_pressure;Samples;Min_cycle;Max_cycle;Signal;HPM_P1;HPM_P2
2021/05/01 00:01:56;;;;;;;0.37;0.30;;;18.90;99.90;;;;;;5037509;28;20229;-92
2021/05/01 00:04:27;;;;;;;2.27;0.50;;;19.00;99.90;;;;;;5037335;28;20216;-90
2021/05/01 00:06:57;;;;;;;0.40;0.30;;;19.00;99.90;;;;;;5038502;28;20271;-90
2021/05/01 00:09:28;;;;;;;1.17;0.30;;;19.20;99.90;;;;;;5037647;28;20201;-90
2021/05/01 00:11:59;;;;;;;0.40;0.40;;;19.40;99.90;;;;;;5036618;28;20739;-90
2021/05/01 00:14:28;;;;;;;0.67;0.20;;;19.40;99.90;;;;;;5038688;28;20228;-89
2021/05/01 00:17:01;;;;;;;0.50;0.30;;;19.70;99.90;;;;;;5036246;28;20624;-89
2021/05/01 00:19:32;;;;;;;0.37;0.20;;;19.10;99.90;;;;;;5037076;28;20294;-90
2021/05/01 00:22:02;;;;;;;0.60;0.20;;;19.20;99.90;;;;;;5038233;28;20209;-89
2021/05/01 00:24:33;;;;;;;0.23;0.23;;;19.00;99.90;;;;;;5045002;28;20228;-89
2021/05/01 00:27:04;;;;;;;0.30;0.30;;;19.20;99.90;;;;;;5057441;28;20285;-89
2021/05/01 00:29:35;;;;;;;0.40;0.20;;;19.60;99.90;;;;;;5056879;28;20217;-90
2021/05/01 00:32:08;;;;;;;0.50;0.23;;;19.60;99.90;;;;;;5056405;28;20235;-89
2021/05/01 00:34:39;;;;;;;0.27;0.27;;;19.80;99.90;;;;;;5058212;28;20220;-90
2021/05/01 00:37:09;;;;;;;1.30;0.40;;;20.20;99.90;;;;;;5056615;28;20692;-90
2021/05/01 00:39:40;;;;;;;0.17;0.13;;;19.90;99.90;;;;;;5060843;28;20240;-92
2021/05/01 00:42:11;;;;;;;0.30;0.30;;;18.80;99.90;;;;;;5056512;28;20208;-89
2021/05/01 00:44:41;;;;;;;0.87;0.30;;;18.80;99.90;;;;;;5057509;28;20243;-90
2021/05/01 00:47:14;;;;;;;0.30;0.20;;;19.30;99.90;;;;;;5055101;28;20211;-90
2021/05/01 00:49:45;;;;;;;0.30;0.30;;;19.50;99.90;;;;;;5061115;28;20283;-91
2021/05/01 00:52:15;;;;;;;0.50;0.33;;;19.60;99.90;;;;;;5057295;28;20212;-90
2021/05/01 00:54:47;;;;;;;0.50;0.30;;;19.70;99.90;;;;;;5057678;28;20626;-90
2021/05/01 00:57:17;;;;;;;1.43;0.40;;;19.80;99.90;;;;;;5040201;28;20620;-90
2021/05/01 00:59:49;;;;;;;0.50;0.30;;;20.40;99.90;;;;;;5035281;28;20782;-90
2021/05/01 01:02:27;;;;;;;1.20;0.30;;;20.60;99.90;;;;;;5059483;28;20250;-90
2021/05/01 01:04:58;;;;;;;0.27;0.27;;;19.80;99.90;;;;;;5054603;28;20245;-91
2021/05/01 01:07:28;;;;;;;0.30;0.30;;;19.90;99.90;;;;;;5056377;28;20312;-90
2021/05/01 01:09:58;;;;;;;1.10;0.47;;;20.60;99.90;;;;;;5057149;28;20331;-90
2021/05/01 01:12:28;;;;;;;1.67;0.50;;;21.00;99.90;;;;;;5056103;28;20670;-89
2021/05/01 01:15:00;;;;;;;0.97;0.40;;;21.10;99.90;;;;;;5056771;28;20234;-90
2021/05/01 01:17:32;;;;;;;1.27;0.30;;;21.10;99.90;;;;;;5056193;28;21009;-90
2021/05/01 01:20:04;;;;;;;0.20;0.20;;;21.90;99.90;;;;;;5056407;28;20223;-90
2021/05/01 01:22:36;;;;;;;1.00;0.50;;;22.20;99.90;;;;;;5057222;28;20208;-89
2021/05/01 01:25:08;;;;;;;0.60;0.50;;;21.20;99.90;;;;;;5075319;28;20203;-91
2021/05/01 01:27:39;;;;;;;2.00;0.50;;;21.00;99.90;;;;;;5077523;28;20212;-89
2021/05/01 01:30:11;;;;;;;0.30;0.30;;;21.50;99.90;;;;;;5076056;28;20193;-90
2021/05/01 01:32:41;;;;;;;1.60;0.30;;;22.10;99.90;;;;;;5063107;28;20204;-90
2021/05/01 01:35:14;;;;;;;0.30;0.30;;;22.30;99.90;;;;;;5056366;28;20747;-90
2021/05/01 01:37:47;;;;;;;1.20;0.30;;;21.60;99.90;;;;;;5056124;28;20614;-90
2021/05/01 01:40:19;;;;;;;0.40;0.30;;;22.00;99.90;;;;;;5020383;28;20275;-91
2021/05/01 01:42:49;;;;;;;0.30;0.30;;;21.90;99.90;;;;;;5038340;28;20248;-92
2021/05/01 01:45:21;;;;;;;0.87;0.30;;;21.80;99.90;;;;;;5037782;28;20232;-91
2021/05/01 01:47:51;;;;;;;0.50;0.30;;;21.60;99.90;;;;;;5035551;28;20211;-92
2021/05/01 01:50:23;;;;;;;0.30;0.30;;;21.00;99.90;;;;;;5035870;28;20205;-91
2021/05/01 01:52:55;;;;;;;0.40;0.30;;;20.00;99.90;;;;;;5035776;28;20212;-91
2021/05/01 01:55:26;;;;;;;0.40;0.40;;;19.90;99.90;;;;;;5034595;28;20213;-91
2021/05/01 01:57:55;;;;;;;1.53;0.50;;;19.80;99.90;;;;;;5035258;28;20220;-92
2021/05/01 02:00:27;;;;;;;0.40;0.33;;;19.40;99.90;;;;;;5037352;28;20205;-93
2021/05/01 02:02:57;;;;;;;2.03;0.40;;;18.50;99.90;;;;;;5036866;28;20213;-91
2021/05/01 02:05:27;;;;;;;0.90;0.50;;;17.90;99.90;;;;;;5034432;28;20243;-92
2021/05/01 02:07:59;;;;;;;2.53;0.60;;;17.70;99.90;;;;;;5035383;28;20235;-91
2021/05/01 02:10:29;;;;;;;0.50;0.50;;;17.90;99.90;;;;;;5034975;28;20205;-92
2021/05/01 02:13:00;;;;;;;0.50;0.40;;;17.70;99.90;;;;;;5037238;28;20213;-92
2021/05/01 02:15:31;;;;;;;0.30;0.30;;;17.50;99.90;;;;;;5034485;28;20208;-88
2021/05/01 02:18:02;;;;;;;0.63;0.43;;;17.40;99.90;;;;;;5019505;28;20240;-91
2021/05/01 02:20:35;;;;;;;0.33;0.33;;;17.40;99.90;;;;;;5036110;28;20266;-92
2021/05/01 02:23:08;;;;;;;0.33;0.30;;;17.50;99.90;;;;;;5038160;28;20899;-89
2021/05/01 02:25:38;;;;;;;0.50;0.40;;;17.60;99.90;;;;;;5036040;28;20587;-91
2021/05/01 02:28:08;;;;;;;0.53;0.37;;;17.50;99.90;;;;;;5034868;28;20687;-91
2021/05/01 02:30:39;;;;;;;1.23;0.30;;;17.40;99.90;;;;;;5034652;28;20209;-91
2021/05/01 02:33:10;;;;;;;0.83;0.50;;;17.30;99.90;;;;;;5017559;28;20572;-90
2021/05/01 02:35:42;;;;;;;0.47;0.47;;;17.20;99.90;;;;;;5016330;28;20274;-91
2021/05/01 02:38:13;;;;;;;0.83;0.40;;;17.00;99.90;;;;;;5019862;28;20228;-92
2021/05/01 02:40:44;;;;;;;0.50;0.47;;;17.00;99.90;;;;;;5035236;28;20266;-92
2021/05/01 02:43:15;;;;;;;0.53;0.40;;;17.00;99.90;;;;;;5018314;28;20201;-92
2021/05/01 02:45:47;;;;;;;0.40;0.40;;;17.00;99.90;;;;;;5034095;28;20232;-92
2021/05/01 02:48:17;;;;;;;0.40;0.40;;;16.90;99.90;;;;;;5035614;28;20224;-91
2021/05/01 02:50:50;;;;;;;1.43;0.40;;;16.60;99.90;;;;;;5035660;28;20209;-92
2021/05/01 02:53:22;;;;;;;0.40;0.40;;;16.50;99.90;;;;;;5019885;28;20221;-92
2021/05/01 02:55:53;;;;;;;0.60;0.60;;;16.50;99.90;;;;;;5033614;28;20212;-91
2021/05/01 02:58:23;;;;;;;0.67;0.50;;;16.30;99.90;;;;;;5034234;28;20239;-91
2021/05/01 03:00:55;;;;;;;0.73;0.53;;;16.30;99.90;;;;;;5018974;28;20262;-92
2021/05/01 03:03:25;;;;;;;0.50;0.50;;;16.30;99.90;;;;;;5034501;28;20236;-92
2021/05/01 03:05:56;;;;;;;0.43;0.43;;;16.20;99.90;;;;;;5033240;28;20200;-91
2021/05/01 03:08:28;;;;;;;1.60;0.53;;;16.10;99.90;;;;;;5034448;28;20237;-92
2021/05/01 03:10:59;;;;;;;0.67;0.67;;;16.10;99.90;;;;;;5034132;28;20296;-92
2021/05/01 03:13:30;;;;;;;0.60;0.50;;;16.00;99.90;;;;;;5034016;28;20275;-91
2021/05/01 03:16:00;;;;;;;0.73;0.53;;;15.90;99.90;;;;;;5033576;28;20205;-91
2021/05/01 03:18:30;;;;;;;0.60;0.57;;;15.80;99.90;;;;;;5034649;28;20256;-91
2021/05/01 03:21:00;;;;;;;0.70;0.70;;;15.70;99.90;;;;;;5034568;28;20267;-91
2021/05/01 03:23:33;;;;;;;0.77;0.70;;;15.60;99.90;;;;;;5017333;28;20215;-91
2021/05/01 03:26:04;;;;;;;1.00;0.60;;;15.60;99.90;;;;;;5033461;28;20213;-91
2021/05/01 03:28:35;;;;;;;1.07;0.60;;;15.50;99.90;;;;;;5036209;28;20630;-91
2021/05/01 03:31:05;;;;;;;0.73;0.73;;;15.50;99.90;;;;;;5038066;28;20200;-91
2021/05/01 03:33:36;;;;;;;0.67;0.57;;;15.50;99.90;;;;;;5037815;28;20331;-91
2021/05/01 03:36:08;;;;;;;1.43;0.60;;;15.40;99.90;;;;;;5037302;28;20235;-91
2021/05/01 03:38:40;;;;;;;1.67;0.63;;;15.30;99.90;;;;;;5037761;28;20262;-92
2021/05/01 03:41:12;;;;;;;1.53;0.70;;;15.20;99.90;;;;;;5038127;28;20205;-91
2021/05/01 03:43:43;;;;;;;0.90;0.63;;;15.20;99.90;;;;;;5037676;28;20235;-92
2021/05/01 03:46:13;;;;;;;0.77;0.60;;;15.00;99.90;;;;;;5036958;28;20263;-91
2021/05/01 03:48:44;;;;;;;2.57;0.70;;;15.00;99.90;;;;;;5055092;28;20209;-92
2021/05/01 03:51:15;;;;;;;0.80;0.60;;;15.00;99.90;;;;;;5059768;28;20196;-92
2021/05/01 03:53:47;;;;;;;1.07;0.70;;;14.90;99.90;;;;;;5057629;28;20201;-92
2021/05/01 03:56:17;;;;;;;1.37;0.80;;;14.80;99.90;;;;;;5038923;28;20291;-91
2021/05/01 03:58:48;;;;;;;0.50;0.50;;;14.80;99.90;;;;;;5005958;28;20301;-91
2021/05/01 04:01:19;;;;;;;0.73;0.70;;;14.80;99.90;;;;;;5038431;28;20206;-91
2021/05/01 04:03:49;;;;;;;0.70;0.60;;;14.80;99.90;;;;;;5038017;28;20643;-91
2021/05/01 04:06:20;;;;;;;0.50;0.50;;;14.80;99.90;;;;;;5037512;28;20212;-91
2021/05/01 04:08:51;;;;;;;0.77;0.70;;;14.70;99.90;;;;;;5037353;28;20212;-92
2021/05/01 04:11:20;;;;;;;1.03;0.70;;;14.50;99.90;;;;;;5037677;28;20208;-92
2021/05/01 04:13:50;;;;;;;0.50;0.50;;;14.50;99.90;;;;;;5037343;28;20393;-90
2021/05/01 04:16:20;;;;;;;1.53;0.70;;;14.40;99.90;;;;;;5036886;28;20201;-91
2021/05/01 04:18:51;;;;;;;2.10;0.60;;;14.30;99.90;;;;;;5037175;28;20225;-91
2021/05/01 04:21:21;;;;;;;1.13;0.80;;;14.20;99.90;;;;;;5037283;28;20544;-91
2021/05/01 04:23:52;;;;;;;1.03;0.90;;;14.00;99.90;;;;;;5037150;28;20261;-90
2021/05/01 04:26:23;;;;;;;4.93;0.90;;;14.00;99.90;;;;;;5036012;28;20217;-90
2021/05/01 04:28:56;;;;;;;1.63;1.07;;;14.00;99.90;;;;;;5037202;28;20300;-90
2021/05/01 04:31:27;;;;;;;1.73;0.90;;;14.00;99.90;;;;;;5037277;28;20243;-90
2021/05/01 04:33:58;;;;;;;1.27;1.00;;;13.90;99.90;;;;;;5037394;28;20292;-90
2021/05/01 04:36:29;;;;;;;2.50;1.40;;;13.80;99.90;;;;;;5038138;28;20217;-90
2021/05/01 04:39:01;;;;;;;3.33;1.47;;;13.70;99.90;;;;;;5036315;28;20236;-90
2021/05/01 04:41:32;;;;;;;2.00;1.80;;;13.70;99.90;;;;;;5041103;28;20263;-89
2021/05/01 04:44:03;;;;;;;3.33;1.57;;;13.70;99.90;;;;;;5040942;28;20255;-90
2021/05/01 04:46:35;;;;;;;3.40;1.80;;;13.70;99.90;;;;;;5038827;28;20213;-91
2021/05/01 04:49:07;;;;;;;3.13;1.50;;;13.70;99.90;;;;;;5039568;28;20201;-92
2021/05/01 04:51:38;;;;;;;2.60;1.53;;;13.60;99.90;;;;;;5040480;28;20209;-91
2021/05/01 04:54:08;;;;;;;2.80;1.70;;;13.50;99.90;;;;;;5041696;28;20228;-91
2021/05/01 04:56:40;;;;;;;2.63;1.80;;;13.50;99.90;;;;;;5040282;28;20213;-91
2021/05/01 04:59:10;;;;;;;2.00;1.70;;;13.50;99.90;;;;;;5040529;28;20272;-90
2021/05/01 05:01:41;;;;;;;2.67;1.60;;;13.40;99.90;;;;;;5039412;28;20315;-91
2021/05/01 05:04:12;;;;;;;3.30;1.47;;;13.40;99.90;;;;;;5022955;28;20255;-91
2021/05/01 05:06:43;;;;;;;1.83;1.60;;;13.30;99.90;;;;;;5048041;28;20430;-91
2021/05/01 05:09:21;;;;;;;2.60;1.77;;;13.30;99.90;;;;;;5030746;28;20273;-90
2021/05/01 05:11:51;;;;;;;2.27;1.60;;;13.20;99.90;;;;;;5028616;28;20209;-91
2021/05/01 05:14:23;;;;;;;3.53;2.00;;;13.00;99.90;;;;;;5017558;28;20205;-91
2021/05/01 05:16:55;;;;;;;3.13;1.80;;;13.10;99.90;;;;;;5017794;28;20205;-90
2021/05/01 05:19:26;;;;;;;3.20;1.90;;;13.00;99.90;;;;;;5018318;28;20236;-91
2021/05/01 05:21:56;;;;;;;1.60;1.50;;;12.90;99.90;;;;;;5019329;28;20225;-91
2021/05/01 05:24:29;;;;;;;2.43;1.60;;;12.90;99.90;;;;;;5017846;28;20201;-91
2021/05/01 05:27:00;;;;;;;5.63;1.80;;;12.90;99.90;;;;;;5017078;28;20682;-91
2021/05/01 05:29:31;;;;;;;2.30;1.60;;;12.80;99.90;;;;;;5021149;28;20636;-91
2021/05/01 05:32:04;;;;;;;2.33;1.80;;;12.80;99.90;;;;;;5001445;28;20212;-91
2021/05/01 05:34:37;;;;;;;3.67;1.90;;;12.80;99.90;;;;;;5017446;28;20721;-91
2021/05/01 05:37:07;;;;;;;2.57;1.60;;;12.70;99.90;;;;;;5018994;28;20620;-90
2021/05/01 05:39:41;;;;;;;2.53;1.87;;;12.70;99.90;;;;;;5019020;28;20233;-91
2021/05/01 05:42:13;;;;;;;2.10;1.70;;;12.70;99.90;;;;;;5018692;28;20283;-91
2021/05/01 05:44:44;;;;;;;2.37;1.40;;;12.60;99.90;;;;;;5023352;28;20323;-91
2021/05/01 05:47:18;;;;;;;2.27;1.70;;;12.60;99.90;;;;;;5038618;28;20201;-91
2021/05/01 05:49:49;;;;;;;2.90;1.80;;;12.50;99.90;;;;;;5038637;28;20208;-92
2021/05/01 05:52:23;;;;;;;1.83;1.57;;;12.50;99.90;;;;;;5036890;28;20205;-90
2021/05/01 05:54:57;;;;;;;1.83;1.73;;;12.50;99.90;;;;;;5037427;28;20216;-90
2021/05/01 05:57:27;;;;;;;4.90;1.50;;;12.40;99.90;;;;;;5038990;28;20190;-91
2021/05/01 05:59:59;;;;;;;1.67;1.47;;;12.40;99.90;;;;;;5037813;28;20254;-90
2021/05/01 06:02:30;;;;;;;1.23;1.13;;;12.30;99.90;;;;;;5038363;28;20205;-91
2021/05/01 06:05:05;;;;;;;6.30;1.67;;;12.40;99.90;;;;;;5037057;28;20205;-91
2021/05/01 06:07:41;;;;;;;3.30;1.70;;;12.40;99.90;;;;;;5037437;28;20211;-91
2021/05/01 06:10:14;;;;;;;2.97;1.37;;;12.50;99.90;;;;;;5037609;28;20278;-91
2021/05/01 06:12:45;;;;;;;2.33;1.50;;;12.50;99.90;;;;;;5050156;28;20204;-91
2021/05/01 06:15:19;;;;;;;1.93;1.43;;;12.60;99.90;;;;;;5052904;28;20209;-91
2021/05/01 06:17:52;;;;;;;2.90;1.50;;;12.60;99.90;;;;;;5054709;28;20211;-90
2021/05/01 06:20:23;;;;;;;2.30;1.50;;;12.50;99.90;;;;;;5037586;28;20327;-90
2021/05/01 06:22:54;;;;;;;3.50;1.63;;;12.60;99.90;;;;;;5035687;28;20228;-90
2021/05/01 06:25:26;;;;;;;3.20;1.43;;;12.70;99.90;;;;;;5034237;28;20557;-89
2021/05/01 06:27:56;;;;;;;2.77;1.50;;;12.70;99.90;;;;;;5035049;28;20233;-90
2021/05/01 06:30:27;;;;;;;2.93;1.20;;;12.60;99.90;;;;;;5036141;28;20201;-90
2021/05/01 06:33:02;;;;;;;2.43;1.30;;;12.70;99.90;;;;;;5034775;28;20208;-90
2021/05/01 06:35:33;;;;;;;1.90;1.00;;;12.60;99.90;;;;;;5033307;28;20716;-91
2021/05/01 06:38:06;;;;;;;1.60;1.07;;;12.60;99.90;;;;;;5036819;28;20662;-91
2021/05/01 06:40:42;;;;;;;3.83;1.30;;;12.60;99.90;;;;;;5044356;28;20259;-91
2021/05/01 06:43:17;;;;;;;4.90;1.27;;;12.60;99.90;;;;;;5057144;28;20279;-91
2021/05/01 06:45:49;;;;;;;6.77;1.40;;;12.50;99.90;;;;;;5054211;28;20226;-91
2021/05/01 06:48:27;;;;;;;2.47;1.20;;;12.50;99.90;;;;;;5054778;28;20212;-91
2021/05/01 06:51:01;;;;;;;5.70;1.27;;;12.50;99.90;;;;;;5056923;28;20287;-91
2021/05/01 06:53:33;;;;;;;3.57;1.10;;;12.50;99.90;;;;;;5054935;28;20303;-91
2021/05/01 06:56:06;;;;;;;2.53;1.00;;;12.60;99.90;;;;;;5056188;28;20203;-91
2021/05/01 06:58:36;;;;;;;3.87;1.13;;;12.60;99.90;;;;;;5055364;28;20200;-91
2021/05/01 07:01:09;;;;;;;2.43;1.00;;;12.50;99.90;;;;;;5056815;28;20204;-91
2021/05/01 07:03:44;;;;;;;2.93;1.20;;;12.50;99.90;;;;;;5056458;28;20734;-92
2021/05/01 07:06:15;;;;;;;6.27;1.20;;;12.40;99.90;;;;;;5053672;28;20204;-91
2021/05/01 07:08:45;;;;;;;3.30;1.10;;;12.30;99.90;;;;;;5056934;28;20212;-91
2021/05/01 07:11:17;;;;;;;2.53;1.00;;;12.30;99.90;;;;;;5065879;28;20254;-90
2021/05/01 07:13:50;;;;;;;4.37;1.10;;;12.30;99.90;;;;;;5060501;28;20258;-89
2021/05/01 07:16:21;;;;;;;1.80;0.80;;;12.30;99.90;;;;;;5055433;28;20239;-89
2021/05/01 07:18:52;;;;;;;3.60;1.27;;;12.20;99.90;;;;;;5056518;28;20219;-89
2021/05/01 07:21:22;;;;;;;2.97;0.90;;;12.10;99.90;;;;;;5056072;28;20303;-89
2021/05/01 07:23:53;;;;;;;3.03;1.20;;;12.20;99.90;;;;;;5054581;28;20204;-89
2021/05/01 07:26:25;;;;;;;2.03;0.90;;;12.20;99.90;;;;;;5033202;28;20209;-90
2021/05/01 07:28:57;;;;;;;4.33;1.00;;;12.20;99.90;;;;;;5038092;28;20312;-90
2021/05/01 07:31:32;;;;;;;6.13;1.17;;;12.30;99.90;;;;;;5047347;28;20240;-90
2021/05/01 07:34:04;;;;;;;3.27;1.20;;;12.20;99.90;;;;;;5053632;28;20203;-90
2021/05/01 07:36:40;;;;;;;2.87;1.27;;;12.10;99.90;;;;;;5036000;28;20254;-90
2021/05/01 07:39:12;;;;;;;3.30;1.30;;;12.10;99.90;;;;;;5053737;28;20242;-90
2021/05/01 07:41:47;;;;;;;4.67;1.20;;;12.00;99.90;;;;;;5053607;28;20688;-90
2021/05/01 07:44:19;;;;;;;4.93;1.40;;;12.10;99.90;;;;;;5053734;28;20296;-91
2021/05/01 07:46:51;;;;;;;5.33;1.10;;;12.00;99.90;;;;;;5052815;28;20673;-90
2021/05/01 07:49:22;;;;;;;3.27;1.20;;;11.90;99.90;;;;;;5053956;28;20642;-90
2021/05/01 07:51:52;;;;;;;3.80;1.03;;;12.00;99.90;;;;;;5053709;28;20281;-91
2021/05/01 07:54:22;;;;;;;4.67;1.40;;;11.90;99.90;;;;;;5053975;28;20718;-91
2021/05/01 07:56:54;;;;;;;3.43;1.20;;;11.80;99.90;;;;;;5052845;28;20261;-91
2021/05/01 07:59:25;;;;;;;4.00;1.30;;;11.70;99.90;;;;;;5053081;28;20323;-91
2021/05/01 08:01:56;;;;;;;2.50;1.10;;;11.70;99.90;;;;;;5036118;28;20204;-90
2021/05/01 08:04:27;;;;;;;3.23;1.03;;;11.70;99.90;;;;;;5054416;28;20236;-90
2021/05/01 08:06:57;;;;;;;5.47;1.40;;;11.70;99.90;;;;;;5052927;28;20204;-90
2021/05/01 08:09:28;;;;;;;3.13;1.30;;;11.70;99.90;;;;;;5053461;28;20228;-90
2021/05/01 08:12:00;;;;;;;3.80;1.30;;;11.70;99.90;;;;;;5053526;28;20227;-90
2021/05/01 08:14:30;;;;;;;4.00;1.13;;;11.70;99.90;;;;;;5054032;28;20235;-91
2021/05/01 08:17:01;;;;;;;4.77;1.50;;;11.60;99.90;;;;;;5056127;28;20248;-90
2021/05/01 08:19:32;;;;;;;4.43;1.37;;;11.70;99.90;;;;;;5032339;28;20244;-90
2021/05/01 08:22:03;;;;;;;4.43;1.30;;;11.60;99.90;;;;;;5037570;28;20232;-90
2021/05/01 08:24:34;;;;;;;4.23;1.40;;;11.60;99.90;;;;;;5037089;28;20232;-90
2021/05/01 08:27:07;;;;;;;6.40;1.70;;;11.50;99.90;;;;;;5036585;28;20219;-90
2021/05/01 08:29:37;;;;;;;5.17;1.23;;;11.50;99.90;;;;;;5037394;28;20204;-90
2021/05/01 08:32:08;;;;;;;4.00;1.20;;;11.50;99.90;;;;;;5037098;28;20215;-90
2021/05/01 08:34:39;;;;;;;8.67;1.80;;;11.40;99.90;;;;;;5031982;28;20205;-90
2021/05/01 08:37:10;;;;;;;3.67;1.20;;;11.50;99.90;;;;;;5036234;28;20224;-90
2021/05/01 08:39:42;;;;;;;5.33;1.03;;;11.40;99.90;;;;;;5038544;28;20305;-90
2021/05/01 08:42:12;;;;;;;4.80;1.13;;;11.40;99.90;;;;;;5040124;28;20292;-91
2021/05/01 08:44:42;;;;;;;3.13;1.13;;;11.40;99.90;;;;;;5038607;28;20217;-90
2021/05/01 08:47:13;;;;;;;3.47;1.47;;;11.30;99.90;;;;;;5037183;28;20596;-90
2021/05/01 08:49:44;;;;;;;5.37;1.77;;;11.40;99.90;;;;;;5020060;28;20209;-90
2021/05/01 08:52:15;;;;;;;5.87;1.30;;;11.40;99.90;;;;;;5020218;28;20270;-90
2021/05/01 08:54:48;;;;;;;5.67;1.70;;;11.30;99.90;;;;;;5036387;28;20269;-91
2021/05/01 08:57:27;;;;;;;4.60;1.53;;;11.30;99.90;;;;;;5036139;28;20243;-90
2021/05/01 08:59:59;;;;;;;4.23;1.60;;;11.30;99.90;;;;;;5035988;28;20282;-90
2021/05/01 09:02:31;;;;;;;6.03;1.63;;;11.40;99.90;;;;;;5018923;28;20265;-90
2021/05/01 09:05:02;;;;;;;6.07;1.53;;;11.30;99.90;;;;;;5035506;28;20212;-89
2021/05/01 09:07:33;;;;;;;5.23;1.60;;;11.30;99.90;;;;;;5036830;28;20229;-90
2021/05/01 09:10:08;;;;;;;4.40;1.30;;;11.30;99.90;;;;;;5019400;28;20304;-91
2021/05/01 09:12:43;;;;;;;7.10;1.57;;;11.20;99.90;;;;;;5021074;28;20716;-89
2021/05/01 09:15:21;;;;;;;5.17;1.50;;;11.20;99.90;;;;;;5035092;28;20250;-89
2021/05/01 09:18:00;;;;;;;6.23;1.90;;;11.20;99.90;;;;;;5038445;28;20259;-88
2021/05/01 09:20:31;;;;;;;8.50;1.53;;;11.20;99.90;;;;;;5035100;28;20328;-89
2021/05/01 09:23:04;;;;;;;6.10;1.30;;;11.20;99.90;;;;;;5036174;28;20201;-89
2021/05/01 09:25:47;;;;;;;5.67;1.43;;;11.20;99.90;;;;;;5035656;28;20259;-89
2021/05/01 09:28:19;;;;;;;5.87;1.53;;;11.20;99.90;;;;;;5018874;28;20200;-89
2021/05/01 09:31:05;;;;;;;5.47;1.27;;;11.30;99.90;;;;;;5036653;28;20609;-89
2021/05/01 09:33:37;;;;;;;6.50;1.57;;;11.20;99.90;;;;;;5036589;28;20205;-89
2021/05/01 09:36:12;;;;;;;7.20;1.67;;;11.20;99.90;;;;;;5034867;28;20244;-89
2021/05/01 09:38:44;;;;;;;5.93;1.73;;;11.10;99.90;;;;;;5035393;28;20243;-89
2021/05/01 09:41:17;;;;;;;5.57;1.33;;;11.00;99.90;;;;;;5035418;28;20229;-89
2021/05/01 09:44:06;;;;;;;5.63;1.40;;;11.00;99.90;;;;;;5035040;28;20251;-89
2021/05/01 09:46:48;;;;;;;6.00;1.30;;;10.90;99.90;;;;;;5033056;28;20292;-90
2021/05/01 09:49:21;;;;;;;3.80;1.60;;;10.90;99.90;;;;;;5035644;28;20224;-89
2021/05/01 09:51:54;;;;;;;6.20;1.73;;;10.90;99.90;;;;;;5017983;28;20209;-90
2021/05/01 09:54:28;;;;;;;4.87;1.33;;;10.90;99.90;;;;;;5035764;28;20228;-90
2021/05/01 09:56:59;;;;;;;3.10;1.30;;;10.90;99.90;;;;;;5034239;28;20296;-90
2021/05/01 09:59:42;;;;;;;5.17;1.70;;;10.80;99.90;;;;;;5034830;28;20328;-89
2021/05/01 10:02:14;;;;;;;7.33;1.67;;;10.90;99.90;;;;;;5035095;28;20654;-89
2021/05/01 10:05:01;;;;;;;7.53;1.60;;;10.80;99.90;;;;;;5034729;28;20209;-90
2021/05/01 10:07:32;;;;;;;5.23;1.57;;;10.80;99.90;;;;;;5035250;28;20238;-90
2021/05/01 10:10:03;;;;;;;5.77;1.63;;;10.70;99.90;;;;;;5035738;28;20618;-90
2021/05/01 10:12:37;;;;;;;5.13;1.67;;;10.70;99.90;;;;;;5035267;28;20235;-90
2021/05/01 10:15:19;;;;;;;7.43;1.83;;;10.70;99.90;;;;;;5033906;28;20645;-90
2021/05/01 10:17:51;;;;;;;5.33;1.33;;;10.80;99.90;;;;;;5034878;28;20227;-89
2021/05/01 10:20:23;;;;;;;5.57;1.83;;;10.80;99.90;;;;;;5034417;28;20278;-89
2021/05/01 10:23:02;;;;;;;7.07;1.83;;;10.70;99.90;;;;;;5034765;28;20232;-90
2021/05/01 10:25:38;;;;;;;4.03;1.50;;;10.70;99.90;;;;;;5033673;28;20205;-90
2021/05/01 10:28:13;;;;;;;7.97;1.70;;;10.70;99.90;;;;;;5034626;28;20228;-90
2021/05/01 10:30:48;;;;;;;2.83;1.37;;;10.60;99.90;;;;;;5034565;28;20243;-90
2021/05/01 10:33:29;;;;;;;4.70;1.67;;;10.50;99.90;;;;;;5034794;28;20212;-89
2021/05/01 10:36:05;;;;;;;3.43;1.63;;;10.50;99.90;;;;;;5033969;28;20241;-90
2021/05/01 10:38:37;;;;;;;6.57;1.60;;;10.50;99.90;;;;;;5034551;28;20294;-90
2021/05/01 10:41:15;;;;;;;3.07;1.30;;;10.60;99.90;;;;;;5034379;28;20232;-90
2021/05/01 10:43:51;;;;;;;5.50;1.30;;;10.50;99.90;;;;;;5034302;28;20254;-90
2021/05/01 10:46:28;;;;;;;10.67;1.73;;;10.40;99.90;;;;;;5036052;28;20549;-91
2021/05/01 10:49:01;;;;;;;7.23;1.53;;;10.40;99.90;;;;;;5035644;28;20584;-91
2021/05/01 10:51:37;;;;;;;6.60;1.50;;;10.40;99.90;;;;;;5034585;28;20248;-90
2021/05/01 10:54:13;;;;;;;3.70;1.33;;;10.40;99.90;;;;;;5039419;28;20280;-90
2021/05/01 10:56:47;;;;;;;8.30;2.27;;;10.50;99.90;;;;;;5050111;28;20211;-90
2021/05/01 10:59:19;;;;;;;4.87;1.40;;;10.50;99.90;;;;;;5051930;28;20213;-90
2021/05/01 11:01:53;;;;;;;4.40;1.80;;;10.40;99.90;;;;;;5062013;28;20200;-90
2021/05/01 11:04:25;;;;;;;10.20;2.30;;;10.40;99.90;;;;;;5058373;28;20253;-90
2021/05/01 11:07:19;;;;;;;6.43;1.70;;;10.40;99.90;;;;;;5053557;28;20215;-90
2021/05/01 11:09:50;;;;;;;4.23;1.70;;;10.40;99.90;;;;;;5054548;28;20212;-90
2021/05/01 11:12:24;;;;;;;6.53;1.80;;;10.40;99.90;;;;;;5054380;28;20204;-90
2021/05/01 11:15:03;;;;;;;4.17;1.50;;;10.40;99.90;;;;;;5031736;28;20232;-89
2021/05/01 11:17:38;;;;;;;4.80;1.60;;;10.40;99.90;;;;;;5033904;28;20578;-89
2021/05/01 11:20:10;;;;;;;7.37;1.73;;;10.30;99.90;;;;;;5034681;28;20295;-91
2021/05/01 11:22:43;;;;;;;6.87;1.70;;;10.30;99.90;;;;;;5034012;28;20683;-89
2021/05/01 11:25:15;;;;;;;3.77;1.37;;;10.40;99.90;;;;;;5016329;28;20205;-89
2021/05/01 11:27:47;;;;;;;5.10;1.80;;;10.40;99.90;;;;;;5016136;28;20277;-89
2021/05/01 11:30:20;;;;;;;5.13;1.50;;;10.30;99.90;;;;;;5036044;28;20216;-89
2021/05/01 11:32:53;;;;;;;5.33;1.43;;;10.40;99.90;;;;;;5016557;28;20240;-90
2021/05/01 11:35:25;;;;;;;8.33;1.93;;;10.40;99.90;;;;;;5033260;28;20208;-90
2021/05/01 11:37:57;;;;;;;6.30;1.63;;;10.40;99.90;;;;;;5017015;28;20216;-89
2021/05/01 11:40:30;;;;;;;6.47;1.70;;;10.40;99.90;;;;;;5016818;28;20229;-89
2021/05/01 11:43:01;;;;;;;5.93;1.57;;;10.40;99.90;;;;;;5033466;28;20235;-90
2021/05/01 11:45:38;;;;;;;5.10;1.60;;;10.40;99.90;;;;;;5033004;28;20283;-90
2021/05/01 11:48:14;;;;;;;4.53;1.50;;;10.40;99.90;;;;;;5033782;28;20216;-88
2021/05/01 11:50:48;;;;;;;5.53;1.57;;;10.40;99.90;;;;;;5036720;28;20204;-90
2021/05/01 11:53:33;;;;;;;7.57;2.03;;;10.30;99.90;;;;;;5037809;28;20631;-90
2021/05/01 11:56:08;;;;;;;3.30;1.50;;;10.40;99.90;;;;;;5037339;28;20725;-90
2021/05/01 11:58:38;;;;;;;7.83;2.00;;;10.30;99.90;;;;;;5037809;28;20304;-90
2021/05/01 12:01:19;;;;;;;7.40;1.67;;;10.40;99.90;;;;;;5036919;28;20235;-90
2021/05/01 12:04:00;;;;;;;3.67;1.30;;;10.40;99.90;;;;;;5037855;28;20208;-90
2021/05/01 12:06:38;;;;;;;2.53;1.23;;;10.40;99.90;;;;;;5036527;28;20209;-90
2021/05/01 12:09:12;;;;;;;6.77;1.40;;;10.40;99.90;;;;;;5039875;28;20256;-89
2021/05/01 12:11:47;;;;;;;5.87;1.47;;;10.40;99.90;;;;;;5038251;28;20236;-89
2021/05/01 12:14:19;;;;;;;4.33;1.30;;;10.40;99.90;;;;;;5020312;28;20216;-89
2021/05/01 12:16:49;;;;;;;7.20;1.63;;;10.30;99.90;;;;;;5037982;28;20240;-89
2021/05/01 12:19:30;;;;;;;5.87;1.40;;;10.40;99.90;;;;;;5037476;28;20219;-89
2021/05/01 12:22:21;;;;;;;5.73;1.30;;;10.40;99.90;;;;;;5039513;28;20220;-89
2021/05/01 12:24:52;;;;;;;6.03;1.53;;;10.40;99.90;;;;;;5036960;28;20205;-91
2021/05/01 12:27:51;;;;;;;4.57;1.20;;;10.40;99.90;;;;;;5036908;28;20582;-89
2021/05/01 12:31:01;;;;;;;3.60;1.10;;;10.30;99.90;;;;;;5019311;28;20274;-89
2021/05/01 12:33:53;;;;;;;6.20;1.27;;;10.30;99.90;;;;;;5036367;28;20274;-89
2021/05/01 12:36:27;;;;;;;7.00;1.23;;;10.40;99.90;;;;;;5035791;28;20213;-89
2021/05/01 12:39:00;;;;;;;5.87;1.17;;;10.40;99.90;;;;;;5037143;28;20564;-89
2021/05/01 12:41:42;;;;;;;2.80;1.20;;;10.30;99.90;;;;;;5036999;28;20236;-89
2021/05/01 12:44:34;;;;;;;2.10;1.07;;;10.30;99.90;;;;;;5037292;28;20224;-89
2021/05/01 12:47:06;;;;;;;3.33;1.13;;;10.40;99.90;;;;;;5036378;28;20267;-90
2021/05/01 12:49:39;;;;;;;2.13;1.00;;;10.40;99.90;;;;;;5036760;28;20212;-89
2021/05/01 12:52:21;;;;;;;5.67;1.27;;;10.30;99.90;;;;;;5036925;28;20205;-90
2021/05/01 12:54:58;;;;;;;5.33;1.27;;;10.30;99.90;;;;;;5037583;28;20295;-91
2021/05/01 12:57:39;;;;;;;4.30;1.20;;;10.20;99.90;;;;;;5036778;28;20252;-90
2021/05/01 13:00:27;;;;;;;4.37;1.20;;;10.10;99.90;;;;;;5036262;28;20232;-90
2021/05/01 13:03:19;;;;;;;3.20;1.10;;;10.10;99.90;;;;;;5036987;28;20212;-90
2021/05/01 13:05:50;;;;;;;3.63;1.47;;;10.10;99.90;;;;;;5036001;28;20230;-89
2021/05/01 13:08:26;;;;;;;3.83;1.40;;;10.10;99.90;;;;;;5037046;28;20300;-90
2021/05/01 13:10:58;;;;;;;4.53;1.07;;;10.00;99.90;;;;;;5037385;28;20554;-89
2021/05/01 13:13:38;;;;;;;4.83;1.67;;;10.10;99.90;;;;;;5042488;28;20243;-90
2021/05/01 13:16:10;;;;;;;4.50;1.10;;;10.10;99.90;;;;;;5061144;28;20189;-89
2021/05/01 13:19:11;;;;;;;4.93;1.17;;;10.10;99.90;;;;;;5075897;28;20212;-89